Terminal Aerodrome Forecast
Issued by NWS Shreveport, LA

Home | Current Version | Previous Version | Text Only | Print | Product List | Glossary On
Versions: 1 2 3 4 5 6 7 8 9 10 11 12 13 14 15 16
000
FTUS44 KSHV 180529 CCA
TAFMLU
TAF COR
KMLU 180529Z 1805/1906 19015G24KT P6SM BKN021
     FM181500 23016G23KT P6SM BKN020
     FM182000 27017G24KT P6SM BKN050
     FM182300 32020G27KT P6SM BKN050=

USA.gov is the U.S. government's official web portal to all federal, state and local government web resources and services.